Oceanograf 2 — SPG2498 — position and weather

sailwx.info

Track history (hours):
 
Tides and Currents Weather Stations Pressure Air Temp Water Temp Dewpoint Dewpoint Depression Visibility Wind Speed Wind Dir Waves Ship Positions

Oceanographic research ship Oceanograf 2 (Poland)

Detailed information on ship capabilities available from University of Delaware's Ocean Information Center.

Last reported at 2020-Jul-08 11:00 UTC. Time now 2020-Jul-08 11:34 UTC.
Position N 53°26' E 014°36'.

Length 23 m; draft 1.9 m.

Type: Towing. MMSI: 261014410.

Date/timePositionNaut miles runAvg speedWind from/ knotsBaromVisibWave heightAir tempDewpointWater temp
2020-Jul-08 11:00N 53°26' E 014°36'2 0.4
2020-Jul-08 05:30N 53°25' E 014°38'2 0.1
2020-Jul-07 15:40N 53°26' E 014°36'0 0.0
2020-Jul-07 15:00N 53°26' E 014°36'0 0.0
2020-Jul-07 14:00N 53°26' E 014°36'0 0.0
2020-Jul-07 13:00N 53°26' E 014°36'0 0.0
2020-Jul-07 11:30N 53°26' E 014°36'0 0.0
2020-Jul-07 11:00N 53°26' E 014°36'0 0.0
2020-Jul-07 07:30N 53°26' E 014°36'2 0.9
2020-Jul-07 05:30N 53°25' E 014°38'1 2.1
2020-Jul-07 05:00N 53°24' E 014°38'1 0.0
2020-Jul-06 08:30N 53°25' E 014°38'1 2.5
2020-Jul-06 08:00N 53°26' E 014°36'2 0.1
2020-Jul-05 12:18N 53°24' E 014°38'0 0.0
2020-Jul-05 05:10N 53°24' E 014°38'1 0.0
2020-Jul-03 16:30N 53°25' E 014°37'1 2.5
2020-Jul-03 16:00N 53°26' E 014°36'0 0.4
2020-Jul-03 15:30N 53°26' E 014°36'0 0.0
2020-Jul-03 14:30N 53°26' E 014°36'0 0.1
2020-Jul-03 14:00N 53°26' E 014°36'0 0.0
2020-Jul-03 13:30N 53°26' E 014°36'0 0.0
2020-Jul-03 10:30N 53°26' E 014°36'0 0.0
2020-Jul-03 10:00N 53°26' E 014°36'0 0.1
2020-Jul-03 09:30N 53°26' E 014°36'0 0.0
2020-Jul-03 09:00N 53°26' E 014°36'0 0.1
2020-Jul-03 08:30N 53°26' E 014°36'0 0.0
2020-Jul-03 06:30N 53°26' E 014°36'0 0.0
2020-Jul-02 16:00N 53°26' E 014°36'0 0.0
2020-Jul-02 14:31N 53°26' E 014°36'0 0.0
2020-Jul-02 11:30N 53°26' E 014°36'0 0.0
2020-Jul-02 11:00N 53°26' E 014°36'0 0.0
2020-Jul-02 10:30N 53°26' E 014°36'0 0.0
2020-Jul-02 09:30N 53°26' E 014°36'0 0.0
2020-Jul-02 09:01N 53°26' E 014°36'0 0.0
2020-Jul-02 06:30N 53°26' E 014°36'0 0.0
2020-Jul-01 16:00N 53°26' E 014°36'0 0.0
2020-Jul-01 13:30N 53°26' E 014°36'2 0.2
2020-Jul-01 05:30N 53°25' E 014°37'2 0.1
2020-Jun-30 07:30N 53°26' E 014°36'0 0.0
2020-Jun-30 06:30N 53°26' E 014°36'3 0.2
2020-Jun-29 16:13N 53°24' E 014°38'0 0.0
2020-Jun-29 16:01N 53°24' E 014°38'3 1.4
2020-Jun-29 14:00N 53°26' E 014°36'0 0.0
2020-Jun-29 13:30N 53°26' E 014°36'0 0.0
2020-Jun-29 07:00N 53°26' E 014°36'3 1.8
2020-Jun-29 05:30N 53°24' E 014°38'1 0.1
2020-Jun-28 14:30N 53°25' E 014°37'2 1.7
2020-Jun-28 13:30N 53°26' E 014°36'0 0.0
2020-Jun-28 12:00N 53°26' E 014°36'  
Track history (hours):
 
Tides and Currents Weather Stations Pressure Air Temp Water Temp Dewpoint Dewpoint Depression Visibility Wind Speed Wind Dir Waves Ship Positions

Oceanographic research ship Oceanograf 2 (Poland)

Detailed information on ship capabilities available from University of Delaware's Ocean Information Center.

Last reported at 2020-Jul-08 11:00 UTC. Time now 2020-Jul-08 11:34 UTC.
Position N 53°26' E 014°36'.

Length 23 m; draft 1.9 m.

Type: Towing. MMSI: 261014410.

Date/timePositionNaut miles runAvg speedWind from/ knotsBaromVisibWave heightAir tempDewpointWater temp
2020-Jul-08 11:00N 53°26' E 014°36'2 0.4
2020-Jul-08 05:30N 53°25' E 014°38'2 0.1
2020-Jul-07 15:40N 53°26' E 014°36'0 0.0
2020-Jul-07 15:00N 53°26' E 014°36'0 0.0
2020-Jul-07 14:00N 53°26' E 014°36'0 0.0
2020-Jul-07 13:00N 53°26' E 014°36'0 0.0
2020-Jul-07 11:30N 53°26' E 014°36'0 0.0
2020-Jul-07 11:00N 53°26' E 014°36'0 0.0
2020-Jul-07 07:30N 53°26' E 014°36'2 0.9
2020-Jul-07 05:30N 53°25' E 014°38'1 2.1
2020-Jul-07 05:00N 53°24' E 014°38'1 0.0
2020-Jul-06 08:30N 53°25' E 014°38'1 2.5
2020-Jul-06 08:00N 53°26' E 014°36'2 0.1
2020-Jul-05 12:18N 53°24' E 014°38'0 0.0
2020-Jul-05 05:10N 53°24' E 014°38'1 0.0
2020-Jul-03 16:30N 53°25' E 014°37'1 2.5
2020-Jul-03 16:00N 53°26' E 014°36'0 0.4
2020-Jul-03 15:30N 53°26' E 014°36'0 0.0
2020-Jul-03 14:30N 53°26' E 014°36'0 0.1
2020-Jul-03 14:00N 53°26' E 014°36'0 0.0
2020-Jul-03 13:30N 53°26' E 014°36'0 0.0
2020-Jul-03 10:30N 53°26' E 014°36'0 0.0
2020-Jul-03 10:00N 53°26' E 014°36'0 0.1
2020-Jul-03 09:30N 53°26' E 014°36'0 0.0
2020-Jul-03 09:00N 53°26' E 014°36'0 0.1
2020-Jul-03 08:30N 53°26' E 014°36'0 0.0
2020-Jul-03 06:30N 53°26' E 014°36'0 0.0
2020-Jul-02 16:00N 53°26' E 014°36'0 0.0
2020-Jul-02 14:31N 53°26' E 014°36'0 0.0
2020-Jul-02 11:30N 53°26' E 014°36'0 0.0
2020-Jul-02 11:00N 53°26' E 014°36'0 0.0
2020-Jul-02 10:30N 53°26' E 014°36'0 0.0
2020-Jul-02 09:30N 53°26' E 014°36'0 0.0
2020-Jul-02 09:01N 53°26' E 014°36'0 0.0
2020-Jul-02 06:30N 53°26' E 014°36'0 0.0
2020-Jul-01 16:00N 53°26' E 014°36'0 0.0
2020-Jul-01 13:30N 53°26' E 014°36'2 0.2
2020-Jul-01 05:30N 53°25' E 014°37'2 0.1
2020-Jun-30 07:30N 53°26' E 014°36'0 0.0
2020-Jun-30 06:30N 53°26' E 014°36'3 0.2
2020-Jun-29 16:13N 53°24' E 014°38'0 0.0
2020-Jun-29 16:01N 53°24' E 014°38'3 1.4
2020-Jun-29 14:00N 53°26' E 014°36'0 0.0
2020-Jun-29 13:30N 53°26' E 014°36'0 0.0
2020-Jun-29 07:00N 53°26' E 014°36'3 1.8
2020-Jun-29 05:30N 53°24' E 014°38'1 0.1
2020-Jun-28 14:30N 53°25' E 014°37'2 1.7
2020-Jun-28 13:30N 53°26' E 014°36'0 0.0
2020-Jun-28 12:00N 53°26' E 014°36'  

Dump ship's entire track history